sensor_id;sensor_type;location;lat;lon;timestamp;temperature;humidity
46508;DHT22;32223;53.654;10.014;2024-01-30T00:01:22;4.40;99.90
46508;DHT22;32223;53.654;10.014;2024-01-30T00:03:47;4.40;99.90
46508;DHT22;32223;53.654;10.014;2024-01-30T00:06:13;4.40;99.90
46508;DHT22;32223;53.654;10.014;2024-01-30T00:08:38;4.40;99.90
46508;DHT22;32223;53.654;10.014;2024-01-30T00:11:04;4.40;99.90
46508;DHT22;32223;53.654;10.014;2024-01-30T00:13:30;4.40;99.90
46508;DHT22;32223;53.654;10.014;2024-01-30T00:15:55;4.30;99.90
46508;DHT22;32223;53.654;10.014;2024-01-30T00:18:21;4.40;99.90
46508;DHT22;32223;53.654;10.014;2024-01-30T00:20:46;4.30;99.90
46508;DHT22;32223;53.654;10.014;2024-01-30T00:23:13;4.30;99.90
46508;DHT22;32223;53.654;10.014;2024-01-30T00:25:38;4.30;99.90
46508;DHT22;32223;53.654;10.014;2024-01-30T00:28:04;4.30;99.90
46508;DHT22;32223;53.654;10.014;2024-01-30T00:30:30;4.30;99.90
46508;DHT22;32223;53.654;10.014;2024-01-30T00:32:55;4.30;99.90
46508;DHT22;32223;53.654;10.014;2024-01-30T00:35:21;4.20;99.90
46508;DHT22;32223;53.654;10.014;2024-01-30T00:37:48;4.20;99.90
46508;DHT22;32223;53.654;10.014;2024-01-30T00:40:13;4.20;99.90
46508;DHT22;32223;53.654;10.014;2024-01-30T00:42:44;4.20;99.90
46508;DHT22;32223;53.654;10.014;2024-01-30T00:45:14;4.10;99.90
46508;DHT22;32223;53.654;10.014;2024-01-30T00:47:40;4.10;99.90
46508;DHT22;32223;53.654;10.014;2024-01-30T00:50:06;4.10;99.90
46508;DHT22;32223;53.654;10.014;2024-01-30T00:52:32;4.00;99.90
46508;DHT22;32223;53.654;10.014;2024-01-30T00:54:59;4.00;99.90
46508;DHT22;32223;53.654;10.014;2024-01-30T00:57:24;4.00;99.90
46508;DHT22;32223;53.654;10.014;2024-01-30T00:59:50;3.90;99.90
46508;DHT22;32223;53.654;10.014;2024-01-30T01:02:15;3.90;99.90
46508;DHT22;32223;53.654;10.014;2024-01-30T01:04:43;3.90;99.90
46508;DHT22;32223;53.654;10.014;2024-01-30T01:07:09;3.90;99.90
46508;DHT22;32223;53.654;10.014;2024-01-30T01:09:35;3.90;99.90
46508;DHT22;32223;53.654;10.014;2024-01-30T01:12:02;3.90;99.90
46508;DHT22;32223;53.654;10.014;2024-01-30T01:14:27;3.80;99.90
46508;DHT22;32223;53.654;10.014;2024-01-30T01:16:53;3.90;99.90
46508;DHT22;32223;53.654;10.014;2024-01-30T01:19:18;3.90;99.90
46508;DHT22;32223;53.654;10.014;2024-01-30T01:21:44;3.90;99.90
46508;DHT22;32223;53.654;10.014;2024-01-30T01:24:09;3.80;99.90
46508;DHT22;32223;53.654;10.014;2024-01-30T01:26:35;3.80;99.90
46508;DHT22;32223;53.654;10.014;2024-01-30T01:29:00;3.90;99.90
46508;DHT22;32223;53.654;10.014;2024-01-30T01:31:26;3.80;99.90
46508;DHT22;32223;53.654;10.014;2024-01-30T01:33:55;3.80;99.90
46508;DHT22;32223;53.654;10.014;2024-01-30T01:36:20;3.80;99.90
46508;DHT22;32223;53.654;10.014;2024-01-30T01:38:46;3.90;99.90
46508;DHT22;32223;53.654;10.014;2024-01-30T01:41:12;3.80;99.90
46508;DHT22;32223;53.654;10.014;2024-01-30T01:43:37;3.80;99.90
46508;DHT22;32223;53.654;10.014;2024-01-30T01:46:06;3.90;99.90
46508;DHT22;32223;53.654;10.014;2024-01-30T01:48:32;3.80;99.90
46508;DHT22;32223;53.654;10.014;2024-01-30T01:50:59;3.90;99.90
46508;DHT22;32223;53.654;10.014;2024-01-30T01:53:25;3.90;99.90
46508;DHT22;32223;53.654;10.014;2024-01-30T01:55:51;3.90;99.90
46508;DHT22;32223;53.654;10.014;2024-01-30T01:58:19;4.00;99.90
46508;DHT22;32223;53.654;10.014;2024-01-30T02:00:47;4.00;99.90
46508;DHT22;32223;53.654;10.014;2024-01-30T02:03:14;4.00;99.90
46508;DHT22;32223;53.654;10.014;2024-01-30T02:05:41;4.10;99.90
46508;DHT22;32223;53.654;10.014;2024-01-30T02:08:08;4.10;99.90
46508;DHT22;32223;53.654;10.014;2024-01-30T02:10:34;4.10;99.90
46508;DHT22;32223;53.654;10.014;2024-01-30T02:13:00;4.10;99.90
46508;DHT22;32223;53.654;10.014;2024-01-30T02:15:25;4.10;99.90
46508;DHT22;32223;53.654;10.014;2024-01-30T02:17:51;4.10;99.90
46508;DHT22;32223;53.654;10.014;2024-01-30T02:20:17;4.10;99.90
46508;DHT22;32223;53.654;10.014;2024-01-30T02:22:43;4.10;99.90
46508;DHT22;32223;53.654;10.014;2024-01-30T02:25:08;4.10;99.90
46508;DHT22;32223;53.654;10.014;2024-01-30T02:27:34;4.10;99.90
46508;DHT22;32223;53.654;10.014;2024-01-30T02:29:59;4.10;99.90
46508;DHT22;32223;53.654;10.014;2024-01-30T02:32:25;4.00;99.90
46508;DHT22;32223;53.654;10.014;2024-01-30T02:34:51;4.00;99.90
46508;DHT22;32223;53.654;10.014;2024-01-30T02:37:16;4.00;99.90
46508;DHT22;32223;53.654;10.014;2024-01-30T02:39:42;4.00;99.90
46508;DHT22;32223;53.654;10.014;2024-01-30T02:42:07;4.00;99.90
46508;DHT22;32223;53.654;10.014;2024-01-30T02:48:07;3.90;99.90
46508;DHT22;32223;53.654;10.014;2024-01-30T02:50:33;4.00;99.90
46508;DHT22;32223;53.654;10.014;2024-01-30T02:52:59;4.00;99.90
46508;DHT22;32223;53.654;10.014;2024-01-30T02:55:24;3.90;99.90
46508;DHT22;32223;53.654;10.014;2024-01-30T02:57:50;3.80;99.90
46508;DHT22;32223;53.654;10.014;2024-01-30T03:00:15;3.90;99.90
46508;DHT22;32223;53.654;10.014;2024-01-30T03:02:41;3.80;99.90
46508;DHT22;32223;53.654;10.014;2024-01-30T03:05:08;3.80;99.90
46508;DHT22;32223;53.654;10.014;2024-01-30T03:07:33;3.80;99.90
46508;DHT22;32223;53.654;10.014;2024-01-30T03:09:59;3.90;99.90
46508;DHT22;32223;53.654;10.014;2024-01-30T03:12:25;3.90;99.90
46508;DHT22;32223;53.654;10.014;2024-01-30T03:14:50;3.80;99.90
46508;DHT22;32223;53.654;10.014;2024-01-30T03:17:17;3.80;99.90
46508;DHT22;32223;53.654;10.014;2024-01-30T03:19:42;3.80;99.90
46508;DHT22;32223;53.654;10.014;2024-01-30T03:22:08;3.80;99.90
46508;DHT22;32223;53.654;10.014;2024-01-30T03:24:33;3.70;99.90
46508;DHT22;32223;53.654;10.014;2024-01-30T03:26:59;3.70;99.90
46508;DHT22;32223;53.654;10.014;2024-01-30T03:29:25;3.70;99.90
46508;DHT22;32223;53.654;10.014;2024-01-30T03:31:50;3.70;99.90
46508;DHT22;32223;53.654;10.014;2024-01-30T03:34:16;3.70;99.90
46508;DHT22;32223;53.654;10.014;2024-01-30T03:36:41;3.70;99.90
46508;DHT22;32223;53.654;10.014;2024-01-30T03:39:07;3.70;99.90
46508;DHT22;32223;53.654;10.014;2024-01-30T03:41:33;3.60;99.90
46508;DHT22;32223;53.654;10.014;2024-01-30T03:43:59;3.60;99.90
46508;DHT22;32223;53.654;10.014;2024-01-30T03:46:24;3.60;99.90
46508;DHT22;32223;53.654;10.014;2024-01-30T03:48:50;3.60;99.90
46508;DHT22;32223;53.654;10.014;2024-01-30T03:51:15;3.60;99.90
46508;DHT22;32223;53.654;10.014;2024-01-30T03:53:44;3.50;99.90
46508;DHT22;32223;53.654;10.014;2024-01-30T03:56:12;3.50;99.90
46508;DHT22;32223;53.654;10.014;2024-01-30T03:58:39;3.50;99.90
46508;DHT22;32223;53.654;10.014;2024-01-30T04:01:05;3.50;99.90
46508;DHT22;32223;53.654;10.014;2024-01-30T04:03:30;3.50;99.90
46508;DHT22;32223;53.654;10.014;2024-01-30T04:05:56;3.50;99.90
46508;DHT22;32223;53.654;10.014;2024-01-30T04:08:21;3.50;99.90
46508;DHT22;32223;53.654;10.014;2024-01-30T04:10:48;3.40;99.90
46508;DHT22;32223;53.654;10.014;2024-01-30T04:13:14;3.50;99.90
46508;DHT22;32223;53.654;10.014;2024-01-30T04:15:39;3.50;99.90
46508;DHT22;32223;53.654;10.014;2024-01-30T04:18:05;3.50;99.90
46508;DHT22;32223;53.654;10.014;2024-01-30T04:20:31;3.40;99.90
46508;DHT22;32223;53.654;10.014;2024-01-30T04:22:56;3.40;99.90
46508;DHT22;32223;53.654;10.014;2024-01-30T04:25:22;3.40;99.90
46508;DHT22;32223;53.654;10.014;2024-01-30T04:27:48;3.40;99.90
46508;DHT22;32223;53.654;10.014;2024-01-30T04:30:14;3.50;99.90
46508;DHT22;32223;53.654;10.014;2024-01-30T04:32:39;3.40;99.90
46508;DHT22;32223;53.654;10.014;2024-01-30T04:35:05;3.50;99.90
46508;DHT22;32223;53.654;10.014;2024-01-30T04:37:31;3.40;99.90
46508;DHT22;32223;53.654;10.014;2024-01-30T04:39:56;3.40;99.90
46508;DHT22;32223;53.654;10.014;2024-01-30T04:42:22;3.40;99.90
46508;DHT22;32223;53.654;10.014;2024-01-30T04:44:48;3.40;99.90
46508;DHT22;32223;53.654;10.014;2024-01-30T04:47:13;3.30;99.90
46508;DHT22;32223;53.654;10.014;2024-01-30T04:49:39;3.40;99.90
46508;DHT22;32223;53.654;10.014;2024-01-30T04:52:06;3.40;99.90
46508;DHT22;32223;53.654;10.014;2024-01-30T04:54:32;3.40;99.90
46508;DHT22;32223;53.654;10.014;2024-01-30T04:56:57;3.40;99.90
46508;DHT22;32223;53.654;10.014;2024-01-30T04:59:23;3.40;99.90
46508;DHT22;32223;53.654;10.014;2024-01-30T05:01:49;3.30;99.90
46508;DHT22;32223;53.654;10.014;2024-01-30T05:04:15;3.30;99.90
46508;DHT22;32223;53.654;10.014;2024-01-30T05:06:40;3.40;99.90
46508;DHT22;32223;53.654;10.014;2024-01-30T05:09:06;3.40;99.90
46508;DHT22;32223;53.654;10.014;2024-01-30T05:11:36;3.50;99.90
46508;DHT22;32223;53.654;10.014;2024-01-30T05:14:02;3.60;99.90
46508;DHT22;32223;53.654;10.014;2024-01-30T05:16:27;3.60;99.90
46508;DHT22;32223;53.654;10.014;2024-01-30T05:18:53;3.60;99.90
46508;DHT22;32223;53.654;10.014;2024-01-30T05:21:18;3.60;99.90
46508;DHT22;32223;53.654;10.014;2024-01-30T05:23:44;3.60;99.90
46508;DHT22;32223;53.654;10.014;2024-01-30T05:26:10;3.70;99.90
46508;DHT22;32223;53.654;10.014;2024-01-30T05:28:35;3.60;99.90
46508;DHT22;32223;53.654;10.014;2024-01-30T05:31:01;3.70;99.90
46508;DHT22;32223;53.654;10.014;2024-01-30T05:33:27;3.70;99.90
46508;DHT22;32223;53.654;10.014;2024-01-30T05:35:53;3.80;99.90
46508;DHT22;32223;53.654;10.014;2024-01-30T05:38:20;3.70;99.90
46508;DHT22;32223;53.654;10.014;2024-01-30T05:40:45;3.80;99.90
46508;DHT22;32223;53.654;10.014;2024-01-30T05:43:11;3.80;99.90
46508;DHT22;32223;53.654;10.014;2024-01-30T05:45:37;3.80;99.90
46508;DHT22;32223;53.654;10.014;2024-01-30T05:48:03;3.90;99.90
46508;DHT22;32223;53.654;10.014;2024-01-30T05:50:28;3.90;99.90
46508;DHT22;32223;53.654;10.014;2024-01-30T05:52:54;3.80;99.90
46508;DHT22;32223;53.654;10.014;2024-01-30T05:55:20;3.80;99.90
46508;DHT22;32223;53.654;10.014;2024-01-30T05:57:45;3.90;99.90
46508;DHT22;32223;53.654;10.014;2024-01-30T06:00:11;3.90;99.90
46508;DHT22;32223;53.654;10.014;2024-01-30T06:02:36;3.90;99.90
46508;DHT22;32223;53.654;10.014;2024-01-30T06:05:02;3.80;99.90
46508;DHT22;32223;53.654;10.014;2024-01-30T06:07:28;3.90;99.90
46508;DHT22;32223;53.654;10.014;2024-01-30T06:09:54;3.90;99.90
46508;DHT22;32223;53.654;10.014;2024-01-30T06:12:19;3.90;99.90
46508;DHT22;32223;53.654;10.014;2024-01-30T06:14:45;3.90;99.90
46508;DHT22;32223;53.654;10.014;2024-01-30T06:17:10;3.90;99.90
46508;DHT22;32223;53.654;10.014;2024-01-30T06:19:40;3.90;99.90
46508;DHT22;32223;53.654;10.014;2024-01-30T06:22:06;4.00;99.90
46508;DHT22;32223;53.654;10.014;2024-01-30T06:24:32;4.00;99.90
46508;DHT22;32223;53.654;10.014;2024-01-30T06:26:59;4.00;99.90
46508;DHT22;32223;53.654;10.014;2024-01-30T06:29:24;4.00;99.90
46508;DHT22;32223;53.654;10.014;2024-01-30T06:31:52;4.00;99.90
46508;DHT22;32223;53.654;10.014;2024-01-30T06:34:17;4.00;99.90
46508;DHT22;32223;53.654;10.014;2024-01-30T06:36:43;4.00;99.90
46508;DHT22;32223;53.654;10.014;2024-01-30T06:39:08;4.10;99.90
46508;DHT22;32223;53.654;10.014;2024-01-30T06:41:34;4.10;99.90
46508;DHT22;32223;53.654;10.014;2024-01-30T06:44:01;4.10;99.90
46508;DHT22;32223;53.654;10.014;2024-01-30T06:46:27;4.00;99.90
46508;DHT22;32223;53.654;10.014;2024-01-30T06:48:53;4.10;99.90
46508;DHT22;32223;53.654;10.014;2024-01-30T06:51:18;4.10;99.90
46508;DHT22;32223;53.654;10.014;2024-01-30T06:53:44;4.20;99.90
46508;DHT22;32223;53.654;10.014;2024-01-30T06:56:10;4.20;99.90
46508;DHT22;32223;53.654;10.014;2024-01-30T06:58:36;4.10;99.90
46508;DHT22;32223;53.654;10.014;2024-01-30T07:01:02;4.20;99.90
46508;DHT22;32223;53.654;10.014;2024-01-30T07:03:27;4.10;99.90
46508;DHT22;32223;53.654;10.014;2024-01-30T07:05:53;4.20;99.90
46508;DHT22;32223;53.654;10.014;2024-01-30T07:08:19;4.10;99.90
46508;DHT22;32223;53.654;10.014;2024-01-30T07:10:44;4.10;99.90
46508;DHT22;32223;53.654;10.014;2024-01-30T07:13:11;4.10;99.90
46508;DHT22;32223;53.654;10.014;2024-01-30T07:15:37;4.10;99.90
46508;DHT22;32223;53.654;10.014;2024-01-30T07:18:03;4.10;99.90
46508;DHT22;32223;53.654;10.014;2024-01-30T07:20:30;4.10;99.90
46508;DHT22;32223;53.654;10.014;2024-01-30T07:22:58;4.10;99.90
46508;DHT22;32223;53.654;10.014;2024-01-30T07:25:23;4.10;99.90
46508;DHT22;32223;53.654;10.014;2024-01-30T07:27:52;4.00;99.90
46508;DHT22;32223;53.654;10.014;2024-01-30T07:30:18;4.10;99.90
46508;DHT22;32223;53.654;10.014;2024-01-30T07:32:45;4.10;99.90
46508;DHT22;32223;53.654;10.014;2024-01-30T07:35:11;4.10;99.90
46508;DHT22;32223;53.654;10.014;2024-01-30T07:37:36;4.10;99.90
46508;DHT22;32223;53.654;10.014;2024-01-30T07:40:03;4.10;99.90
46508;DHT22;32223;53.654;10.014;2024-01-30T07:42:29;4.20;99.90
46508;DHT22;32223;53.654;10.014;2024-01-30T07:44:54;4.20;99.90
46508;DHT22;32223;53.654;10.014;2024-01-30T07:47:20;4.20;99.90
46508;DHT22;32223;53.654;10.014;2024-01-30T07:49:45;4.20;99.90
46508;DHT22;32223;53.654;10.014;2024-01-30T07:52:11;4.30;99.90
46508;DHT22;32223;53.654;10.014;2024-01-30T07:54:39;4.30;99.90
46508;DHT22;32223;53.654;10.014;2024-01-30T07:57:13;4.30;99.90
46508;DHT22;32223;53.654;10.014;2024-01-30T07:59:38;4.40;99.90
46508;DHT22;32223;53.654;10.014;2024-01-30T08:02:04;4.40;99.90
46508;DHT22;32223;53.654;10.014;2024-01-30T08:04:30;4.50;99.90
46508;DHT22;32223;53.654;10.014;2024-01-30T08:06:55;4.50;99.90
46508;DHT22;32223;53.654;10.014;2024-01-30T08:09:21;4.60;99.90
46508;DHT22;32223;53.654;10.014;2024-01-30T08:11:46;4.60;99.90
46508;DHT22;32223;53.654;10.014;2024-01-30T08:14:12;4.70;99.90
46508;DHT22;32223;53.654;10.014;2024-01-30T08:16:40;4.70;99.90
46508;DHT22;32223;53.654;10.014;2024-01-30T08:19:06;4.70;99.90
46508;DHT22;32223;53.654;10.014;2024-01-30T08:21:31;4.80;99.90
46508;DHT22;32223;53.654;10.014;2024-01-30T08:24:04;4.80;99.90
46508;DHT22;32223;53.654;10.014;2024-01-30T08:26:33;4.80;99.90
46508;DHT22;32223;53.654;10.014;2024-01-30T08:28:59;4.90;99.90
46508;DHT22;32223;53.654;10.014;2024-01-30T08:31:26;4.90;99.90
46508;DHT22;32223;53.654;10.014;2024-01-30T08:33:52;4.90;99.90
46508;DHT22;32223;53.654;10.014;2024-01-30T08:36:18;5.00;99.90
46508;DHT22;32223;53.654;10.014;2024-01-30T08:38:43;5.10;99.90
46508;DHT22;32223;53.654;10.014;2024-01-30T08:41:10;5.10;99.90
46508;DHT22;32223;53.654;10.014;2024-01-30T08:43:36;5.10;99.90
46508;DHT22;32223;53.654;10.014;2024-01-30T08:46:02;5.20;99.90
46508;DHT22;32223;53.654;10.014;2024-01-30T08:48:28;5.20;99.90
46508;DHT22;32223;53.654;10.014;2024-01-30T08:50:53;5.30;99.90
46508;DHT22;32223;53.654;10.014;2024-01-30T08:53:19;5.30;99.90
46508;DHT22;32223;53.654;10.014;2024-01-30T08:55:45;5.40;99.90
46508;DHT22;32223;53.654;10.014;2024-01-30T08:58:10;5.40;99.90
46508;DHT22;32223;53.654;10.014;2024-01-30T09:00:36;5.50;99.90
46508;DHT22;32223;53.654;10.014;2024-01-30T09:03:03;5.50;99.90
46508;DHT22;32223;53.654;10.014;2024-01-30T09:05:28;5.60;99.90
46508;DHT22;32223;53.654;10.014;2024-01-30T09:07:54;5.70;99.90
46508;DHT22;32223;53.654;10.014;2024-01-30T09:10:19;5.70;99.90
46508;DHT22;32223;53.654;10.014;2024-01-30T09:12:46;5.80;99.90
46508;DHT22;32223;53.654;10.014;2024-01-30T09:15:11;5.90;99.90
46508;DHT22;32223;53.654;10.014;2024-01-30T09:17:38;5.90;99.90
46508;DHT22;32223;53.654;10.014;2024-01-30T09:20:05;6.00;99.90
46508;DHT22;32223;53.654;10.014;2024-01-30T09:22:30;6.10;99.90
46508;DHT22;32223;53.654;10.014;2024-01-30T09:24:57;6.10;99.90
46508;DHT22;32223;53.654;10.014;2024-01-30T09:27:22;6.20;99.90
46508;DHT22;32223;53.654;10.014;2024-01-30T09:29:48;6.30;99.90
46508;DHT22;32223;53.654;10.014;2024-01-30T09:32:14;6.40;99.90
46508;DHT22;32223;53.654;10.014;2024-01-30T09:34:39;6.50;99.90
46508;DHT22;32223;53.654;10.014;2024-01-30T09:37:06;6.50;99.90
46508;DHT22;32223;53.654;10.014;2024-01-30T09:39:31;6.60;99.90
46508;DHT22;32223;53.654;10.014;2024-01-30T09:44:35;6.70;99.90
46508;DHT22;32223;53.654;10.014;2024-01-30T09:47:02;6.80;99.90
46508;DHT22;32223;53.654;10.014;2024-01-30T09:49:34;6.80;99.90
46508;DHT22;32223;53.654;10.014;2024-01-30T09:52:04;6.90;99.90
46508;DHT22;32223;53.654;10.014;2024-01-30T09:54:31;6.90;99.90
46508;DHT22;32223;53.654;10.014;2024-01-30T09:56:57;6.90;99.90
46508;DHT22;32223;53.654;10.014;2024-01-30T09:59:23;7.10;99.90
46508;DHT22;32223;53.654;10.014;2024-01-30T10:01:50;7.10;99.90
46508;DHT22;32223;53.654;10.014;2024-01-30T10:04:16;7.20;99.90
46508;DHT22;32223;53.654;10.014;2024-01-30T10:06:42;7.20;99.90
46508;DHT22;32223;53.654;10.014;2024-01-30T10:09:07;7.20;99.90
46508;DHT22;32223;53.654;10.014;2024-01-30T10:11:35;7.30;99.90
46508;DHT22;32223;53.654;10.014;2024-01-30T10:14:01;7.30;99.90
46508;DHT22;32223;53.654;10.014;2024-01-30T10:16:27;7.40;99.90
46508;DHT22;32223;53.654;10.014;2024-01-30T10:18:52;7.40;99.90
46508;DHT22;32223;53.654;10.014;2024-01-30T10:21:18;7.50;99.90
46508;DHT22;32223;53.654;10.014;2024-01-30T10:23:44;7.60;99.90
46508;DHT22;32223;53.654;10.014;2024-01-30T10:26:12;7.70;99.90
46508;DHT22;32223;53.654;10.014;2024-01-30T10:28:38;7.70;99.90
46508;DHT22;32223;53.654;10.014;2024-01-30T10:31:04;7.80;99.90
46508;DHT22;32223;53.654;10.014;2024-01-30T10:33:30;7.80;99.90
46508;DHT22;32223;53.654;10.014;2024-01-30T10:36:05;7.90;99.90
46508;DHT22;32223;53.654;10.014;2024-01-30T10:38:32;8.00;99.90
46508;DHT22;32223;53.654;10.014;2024-01-30T10:41:00;8.10;99.90
46508;DHT22;32223;53.654;10.014;2024-01-30T10:43:35;8.10;99.90
46508;DHT22;32223;53.654;10.014;2024-01-30T10:46:10;8.20;99.90
46508;DHT22;32223;53.654;10.014;2024-01-30T10:48:42;8.40;99.90
46508;DHT22;32223;53.654;10.014;2024-01-30T10:51:10;8.40;99.90
46508;DHT22;32223;53.654;10.014;2024-01-30T10:53:36;8.50;99.90
46508;DHT22;32223;53.654;10.014;2024-01-30T10:56:03;8.50;99.90
46508;DHT22;32223;53.654;10.014;2024-01-30T10:58:30;8.60;99.90
46508;DHT22;32223;53.654;10.014;2024-01-30T11:00:56;8.60;99.90
46508;DHT22;32223;53.654;10.014;2024-01-30T11:03:22;8.70;99.90
46508;DHT22;32223;53.654;10.014;2024-01-30T11:05:52;8.90;99.90
46508;DHT22;32223;53.654;10.014;2024-01-30T11:08:24;8.90;99.90
46508;DHT22;32223;53.654;10.014;2024-01-30T11:10:55;8.90;99.90
46508;DHT22;32223;53.654;10.014;2024-01-30T11:13:21;8.90;99.90
46508;DHT22;32223;53.654;10.014;2024-01-30T11:15:48;9.00;99.90
46508;DHT22;32223;53.654;10.014;2024-01-30T11:18:25;8.90;99.90
46508;DHT22;32223;53.654;10.014;2024-01-30T11:20:51;8.90;99.90
46508;DHT22;32223;53.654;10.014;2024-01-30T11:23:17;8.90;99.90
46508;DHT22;32223;53.654;10.014;2024-01-30T11:25:44;8.90;99.90
46508;DHT22;32223;53.654;10.014;2024-01-30T11:28:15;8.90;99.90
46508;DHT22;32223;53.654;10.014;2024-01-30T11:30:44;8.80;99.90
46508;DHT22;32223;53.654;10.014;2024-01-30T11:33:11;8.80;99.90
46508;DHT22;32223;53.654;10.014;2024-01-30T11:35:39;8.80;99.90
46508;DHT22;32223;53.654;10.014;2024-01-30T11:38:06;8.80;99.90
46508;DHT22;32223;53.654;10.014;2024-01-30T11:40:33;8.80;99.90
46508;DHT22;32223;53.654;10.014;2024-01-30T11:43:00;8.80;99.90
46508;DHT22;32223;53.654;10.014;2024-01-30T11:45:27;8.80;99.90
46508;DHT22;32223;53.654;10.014;2024-01-30T11:47:53;8.90;99.90
46508;DHT22;32223;53.654;10.014;2024-01-30T11:50:19;8.80;99.90
46508;DHT22;32223;53.654;10.014;2024-01-30T11:52:45;8.90;99.90
46508;DHT22;32223;53.654;10.014;2024-01-30T11:55:10;8.90;99.90
46508;DHT22;32223;53.654;10.014;2024-01-30T11:57:37;8.90;99.90
46508;DHT22;32223;53.654;10.014;2024-01-30T12:00:06;8.90;99.90
46508;DHT22;32223;53.654;10.014;2024-01-30T12:02:38;8.90;99.90
46508;DHT22;32223;53.654;10.014;2024-01-30T12:05:05;8.90;99.90
46508;DHT22;32223;53.654;10.014;2024-01-30T12:07:31;8.80;99.90
46508;DHT22;32223;53.654;10.014;2024-01-30T12:09:57;8.80;99.90
46508;DHT22;32223;53.654;10.014;2024-01-30T12:12:27;8.80;99.90
46508;DHT22;32223;53.654;10.014;2024-01-30T12:14:53;8.80;99.90
46508;DHT22;32223;53.654;10.014;2024-01-30T12:17:28;8.90;99.90
46508;DHT22;32223;53.654;10.014;2024-01-30T12:20:17;9.00;99.90
46508;DHT22;32223;53.654;10.014;2024-01-30T12:22:44;9.00;99.90
46508;DHT22;32223;53.654;10.014;2024-01-30T12:25:14;9.00;99.90
46508;DHT22;32223;53.654;10.014;2024-01-30T12:27:42;9.00;99.90
46508;DHT22;32223;53.654;10.014;2024-01-30T12:30:12;9.00;99.90
46508;DHT22;32223;53.654;10.014;2024-01-30T12:32:40;9.00;99.90
46508;DHT22;32223;53.654;10.014;2024-01-30T12:35:11;9.00;99.90
46508;DHT22;32223;53.654;10.014;2024-01-30T12:37:37;9.10;99.90
46508;DHT22;32223;53.654;10.014;2024-01-30T12:40:04;9.20;99.90
46508;DHT22;32223;53.654;10.014;2024-01-30T12:42:29;9.20;99.90
46508;DHT22;32223;53.654;10.014;2024-01-30T12:44:57;9.20;99.90
46508;DHT22;32223;53.654;10.014;2024-01-30T12:47:23;9.30;99.90
46508;DHT22;32223;53.654;10.014;2024-01-30T12:49:49;9.40;99.90
46508;DHT22;32223;53.654;10.014;2024-01-30T12:52:19;9.40;99.90
46508;DHT22;32223;53.654;10.014;2024-01-30T12:54:45;9.40;99.90
46508;DHT22;32223;53.654;10.014;2024-01-30T12:57:10;9.40;99.90
46508;DHT22;32223;53.654;10.014;2024-01-30T12:59:36;9.40;99.90
46508;DHT22;32223;53.654;10.014;2024-01-30T13:02:01;9.40;99.90
46508;DHT22;32223;53.654;10.014;2024-01-30T13:04:28;9.40;99.90
46508;DHT22;32223;53.654;10.014;2024-01-30T13:06:54;9.50;99.90
46508;DHT22;32223;53.654;10.014;2024-01-30T13:09:20;9.50;99.90
46508;DHT22;32223;53.654;10.014;2024-01-30T13:11:46;9.50;99.90
46508;DHT22;32223;53.654;10.014;2024-01-30T13:14:12;9.50;99.90
46508;DHT22;32223;53.654;10.014;2024-01-30T13:16:37;9.50;99.90
46508;DHT22;32223;53.654;10.014;2024-01-30T13:19:03;9.60;99.90
46508;DHT22;32223;53.654;10.014;2024-01-30T13:21:29;9.50;99.90
46508;DHT22;32223;53.654;10.014;2024-01-30T13:23:54;9.40;99.90
46508;DHT22;32223;53.654;10.014;2024-01-30T13:26:21;9.50;99.90
46508;DHT22;32223;53.654;10.014;2024-01-30T13:28:46;9.40;99.90
46508;DHT22;32223;53.654;10.014;2024-01-30T13:31:13;9.50;99.90
46508;DHT22;32223;53.654;10.014;2024-01-30T13:33:39;9.40;99.90
46508;DHT22;32223;53.654;10.014;2024-01-30T13:36:04;9.40;99.90
46508;DHT22;32223;53.654;10.014;2024-01-30T13:38:30;9.40;99.90
46508;DHT22;32223;53.654;10.014;2024-01-30T13:40:56;9.40;99.90
46508;DHT22;32223;53.654;10.014;2024-01-30T13:43:21;9.50;99.90
46508;DHT22;32223;53.654;10.014;2024-01-30T13:45:47;9.40;99.90
46508;DHT22;32223;53.654;10.014;2024-01-30T13:48:13;9.40;99.90
46508;DHT22;32223;53.654;10.014;2024-01-30T13:50:39;9.40;99.90
46508;DHT22;32223;53.654;10.014;2024-01-30T13:53:04;9.40;99.90
46508;DHT22;32223;53.654;10.014;2024-01-30T13:55:30;9.40;99.90
46508;DHT22;32223;53.654;10.014;2024-01-30T14:01:08;9.40;99.90
46508;DHT22;32223;53.654;10.014;2024-01-30T14:03:38;9.50;99.90
46508;DHT22;32223;53.654;10.014;2024-01-30T14:06:09;9.30;99.90
46508;DHT22;32223;53.654;10.014;2024-01-30T14:08:44;9.40;99.90
46508;DHT22;32223;53.654;10.014;2024-01-30T14:11:10;9.40;99.90
46508;DHT22;32223;53.654;10.014;2024-01-30T14:13:42;9.40;99.90
46508;DHT22;32223;53.654;10.014;2024-01-30T14:16:17;9.40;99.90
46508;DHT22;32223;53.654;10.014;2024-01-30T14:18:47;9.40;99.90
46508;DHT22;32223;53.654;10.014;2024-01-30T14:21:36;9.40;99.90
46508;DHT22;32223;53.654;10.014;2024-01-30T14:24:06;9.40;99.90
46508;DHT22;32223;53.654;10.014;2024-01-30T14:26:47;9.40;99.90
46508;DHT22;32223;53.654;10.014;2024-01-30T14:29:23;9.60;99.90
46508;DHT22;32223;53.654;10.014;2024-01-30T14:31:49;9.70;99.90
46508;DHT22;32223;53.654;10.014;2024-01-30T14:34:14;9.60;99.90
46508;DHT22;32223;53.654;10.014;2024-01-30T14:36:40;9.50;99.90
46508;DHT22;32223;53.654;10.014;2024-01-30T14:39:06;9.60;99.90
46508;DHT22;32223;53.654;10.014;2024-01-30T14:41:32;9.60;99.90
46508;DHT22;32223;53.654;10.014;2024-01-30T14:43:58;9.60;99.90
46508;DHT22;32223;53.654;10.014;2024-01-30T14:46:24;9.60;99.90
46508;DHT22;32223;53.654;10.014;2024-01-30T14:48:50;9.60;99.90
46508;DHT22;32223;53.654;10.014;2024-01-30T14:51:19;9.60;99.90
46508;DHT22;32223;53.654;10.014;2024-01-30T14:53:45;9.60;99.90
46508;DHT22;32223;53.654;10.014;2024-01-30T14:59:27;9.60;99.90
46508;DHT22;32223;53.654;10.014;2024-01-30T15:01:52;9.60;99.90
46508;DHT22;32223;53.654;10.014;2024-01-30T15:04:18;9.60;99.90
46508;DHT22;32223;53.654;10.014;2024-01-30T15:06:43;9.60;99.90
46508;DHT22;32223;53.654;10.014;2024-01-30T15:09:13;9.60;99.90
46508;DHT22;32223;53.654;10.014;2024-01-30T15:11:43;9.70;99.90
46508;DHT22;32223;53.654;10.014;2024-01-30T15:14:09;9.70;99.90
46508;DHT22;32223;53.654;10.014;2024-01-30T15:16:35;9.60;99.90
46508;DHT22;32223;53.654;10.014;2024-01-30T15:19:01;9.60;99.90
46508;DHT22;32223;53.654;10.014;2024-01-30T15:21:27;9.60;99.90
46508;DHT22;32223;53.654;10.014;2024-01-30T15:23:54;9.70;99.90
46508;DHT22;32223;53.654;10.014;2024-01-30T15:26:20;9.70;99.90
46508;DHT22;32223;53.654;10.014;2024-01-30T15:28:47;9.70;99.90
46508;DHT22;32223;53.654;10.014;2024-01-30T15:31:13;9.60;99.90
46508;DHT22;32223;53.654;10.014;2024-01-30T15:33:38;9.80;99.90
46508;DHT22;32223;53.654;10.014;2024-01-30T15:36:04;9.70;99.90
46508;DHT22;32223;53.654;10.014;2024-01-30T15:38:30;9.70;99.90